sensor_id;sensor_type;location;lat;lon;timestamp;pressure;altitude;pressure_sealevel;temperature;humidity
78615;BME280;67937;52.488;20.952;2023-08-06T00:00:25;99527.81;;;18.86;86.77
78615;BME280;67937;52.488;20.952;2023-08-06T00:03:13;99535.19;;;18.87;87.05
78615;BME280;67937;52.488;20.952;2023-08-06T00:05:42;99544.38;;;18.87;87.22
78615;BME280;67937;52.488;20.952;2023-08-06T00:08:10;99546.86;;;18.88;87.03
78615;BME280;67937;52.488;20.952;2023-08-06T00:10:39;99547.86;;;18.89;87.17
78615;BME280;67937;52.488;20.952;2023-08-06T00:13:08;99550.01;;;18.90;87.49
78615;BME280;67937;52.488;20.952;2023-08-06T00:15:36;99555.34;;;18.90;87.45
78615;BME280;67937;52.488;20.952;2023-08-06T00:18:04;99560.98;;;18.93;87.35
78615;BME280;67937;52.488;20.952;2023-08-06T00:20:32;99549.77;;;18.96;87.36
78615;BME280;67937;52.488;20.952;2023-08-06T00:23:00;99539.68;;;18.97;87.03
78615;BME280;67937;52.488;20.952;2023-08-06T00:25:28;99537.25;;;18.98;87.28
78615;BME280;67937;52.488;20.952;2023-08-06T00:27:57;99531.43;;;18.97;87.12
78615;BME280;67937;52.488;20.952;2023-08-06T00:30:25;99525.66;;;18.97;87.02
78615;BME280;67937;52.488;20.952;2023-08-06T00:32:53;99528.92;;;18.97;87.16
78615;BME280;67937;52.488;20.952;2023-08-06T00:35:21;99534.11;;;18.96;87.28
78615;BME280;67937;52.488;20.952;2023-08-06T00:37:49;99535.58;;;18.95;87.48
78615;BME280;67937;52.488;20.952;2023-08-06T00:40:20;99545.63;;;18.94;88.22
78615;BME280;67937;52.488;20.952;2023-08-06T00:42:49;99557.41;;;18.95;89.49
78615;BME280;67937;52.488;20.952;2023-08-06T00:45:17;99566.09;;;18.89;89.92
78615;BME280;67937;52.488;20.952;2023-08-06T00:47:45;99565.12;;;18.84;90.77
78615;BME280;67937;52.488;20.952;2023-08-06T00:50:14;99563.20;;;18.75;91.26
78615;BME280;67937;52.488;20.952;2023-08-06T00:52:42;99554.70;;;18.72;91.13
78615;BME280;67937;52.488;20.952;2023-08-06T00:55:10;99547.93;;;18.70;91.01
78615;BME280;67937;52.488;20.952;2023-08-06T00:57:39;99538.27;;;18.70;90.70
78615;BME280;67937;52.488;20.952;2023-08-06T01:00:07;99530.03;;;18.70;90.50
78615;BME280;67937;52.488;20.952;2023-08-06T01:02:36;99515.45;;;18.71;90.20
78615;BME280;67937;52.488;20.952;2023-08-06T01:05:05;99502.66;;;18.72;89.94
78615;BME280;67937;52.488;20.952;2023-08-06T01:10:39;99482.30;;;18.73;89.44
78615;BME280;67937;52.488;20.952;2023-08-06T01:15:49;99449.67;;;18.74;89.45
78615;BME280;67937;52.488;20.952;2023-08-06T01:18:19;99438.87;;;18.73;89.39
78615;BME280;67937;52.488;20.952;2023-08-06T01:20:47;99436.96;;;18.73;89.34
78615;BME280;67937;52.488;20.952;2023-08-06T01:23:16;99432.24;;;18.75;89.10
78615;BME280;67937;52.488;20.952;2023-08-06T01:31:36;99394.99;;;18.73;89.02
78615;BME280;67937;52.488;20.952;2023-08-06T01:34:07;99387.36;;;18.73;88.84
78615;BME280;67937;52.488;20.952;2023-08-06T01:36:38;99379.20;;;18.73;88.68
78615;BME280;67937;52.488;20.952;2023-08-06T01:39:06;99361.34;;;18.74;89.01
78615;BME280;67937;52.488;20.952;2023-08-06T01:41:35;99345.97;;;18.74;88.79
78615;BME280;67937;52.488;20.952;2023-08-06T01:44:03;99332.43;;;18.73;88.84
78615;BME280;67937;52.488;20.952;2023-08-06T01:46:31;99333.84;;;18.73;88.78
78615;BME280;67937;52.488;20.952;2023-08-06T01:49:00;99325.52;;;18.74;88.77
78615;BME280;67937;52.488;20.952;2023-08-06T01:51:28;99323.24;;;18.75;89.00
78615;BME280;67937;52.488;20.952;2023-08-06T01:53:56;99311.15;;;18.74;89.04
78615;BME280;67937;52.488;20.952;2023-08-06T01:56:24;99302.74;;;18.74;89.08
78615;BME280;67937;52.488;20.952;2023-08-06T01:58:52;99293.88;;;18.74;89.28
78615;BME280;67937;52.488;20.952;2023-08-06T02:01:20;99289.73;;;18.74;88.90
78615;BME280;67937;52.488;20.952;2023-08-06T02:03:48;99281.42;;;18.75;89.21
78615;BME280;67937;52.488;20.952;2023-08-06T02:06:16;99277.02;;;18.74;89.20
78615;BME280;67937;52.488;20.952;2023-08-06T02:08:44;99274.59;;;18.75;89.20
78615;BME280;67937;52.488;20.952;2023-08-06T02:11:12;99270.23;;;18.74;89.41
78615;BME280;67937;52.488;20.952;2023-08-06T02:13:40;99265.92;;;18.73;89.35
78615;BME280;67937;52.488;20.952;2023-08-06T02:16:08;99269.30;;;18.73;89.12
78615;BME280;67937;52.488;20.952;2023-08-06T02:18:36;99268.11;;;18.74;89.21
78615;BME280;67937;52.488;20.952;2023-08-06T02:21:04;99268.23;;;18.72;89.20
78615;BME280;67937;52.488;20.952;2023-08-06T02:23:32;99265.77;;;18.71;89.36
78615;BME280;67937;52.488;20.952;2023-08-06T02:26:04;99264.91;;;18.71;89.24
78615;BME280;67937;52.488;20.952;2023-08-06T02:28:32;99273.99;;;18.71;89.23
78615;BME280;67937;52.488;20.952;2023-08-06T02:31:00;99268.84;;;18.73;89.25
78615;BME280;67937;52.488;20.952;2023-08-06T02:33:28;99259.93;;;18.71;89.14
78615;BME280;67937;52.488;20.952;2023-08-06T02:36:03;99254.20;;;18.71;89.48
78615;BME280;67937;52.488;20.952;2023-08-06T02:38:32;99240.38;;;18.71;89.20
78615;BME280;67937;52.488;20.952;2023-08-06T02:41:04;99241.29;;;18.73;89.29
78615;BME280;67937;52.488;20.952;2023-08-06T02:43:32;99232.40;;;18.74;89.61
78615;BME280;67937;52.488;20.952;2023-08-06T02:46:00;99227.73;;;18.74;89.32
78615;BME280;67937;52.488;20.952;2023-08-06T02:48:29;99227.90;;;18.74;89.44
78615;BME280;67937;52.488;20.952;2023-08-06T02:50:58;99232.61;;;18.76;89.37
78615;BME280;67937;52.488;20.952;2023-08-06T02:53:27;99230.76;;;18.77;89.13
78615;BME280;67937;52.488;20.952;2023-08-06T02:55:55;99235.22;;;18.78;89.21
78615;BME280;67937;52.488;20.952;2023-08-06T02:58:23;99239.30;;;18.79;89.11
78615;BME280;67937;52.488;20.952;2023-08-06T03:01:06;99241.17;;;18.80;89.31
78615;BME280;67937;52.488;20.952;2023-08-06T03:03:34;99231.24;;;18.83;89.34
78615;BME280;67937;52.488;20.952;2023-08-06T03:06:02;99225.54;;;18.84;89.60
78615;BME280;67937;52.488;20.952;2023-08-06T03:08:30;99224.07;;;18.84;89.51
78615;BME280;67937;52.488;20.952;2023-08-06T03:10:58;99212.94;;;18.86;89.58
78615;BME280;67937;52.488;20.952;2023-08-06T03:13:26;99204.77;;;18.88;89.57
78615;BME280;67937;52.488;20.952;2023-08-06T03:15:56;99203.30;;;18.91;89.52
78615;BME280;67937;52.488;20.952;2023-08-06T03:18:24;99197.16;;;18.91;89.59
78615;BME280;67937;52.488;20.952;2023-08-06T03:20:54;99193.98;;;18.92;89.33
78615;BME280;67937;52.488;20.952;2023-08-06T03:23:22;99186.80;;;18.93;89.60
78615;BME280;67937;52.488;20.952;2023-08-06T03:25:50;99185.29;;;18.95;89.38
78615;BME280;67937;52.488;20.952;2023-08-06T03:28:18;99179.06;;;18.96;89.51
78615;BME280;67937;52.488;20.952;2023-08-06T03:30:46;99172.68;;;18.98;89.34
78615;BME280;67937;52.488;20.952;2023-08-06T03:33:14;99163.27;;;19.00;89.47
78615;BME280;67937;52.488;20.952;2023-08-06T03:35:42;99159.10;;;19.02;89.40
78615;BME280;67937;52.488;20.952;2023-08-06T03:38:10;99157.88;;;19.03;89.63
78615;BME280;67937;52.488;20.952;2023-08-06T03:40:38;99154.21;;;19.04;89.66
78615;BME280;67937;52.488;20.952;2023-08-06T03:43:05;99151.16;;;19.07;89.80
78615;BME280;67937;52.488;20.952;2023-08-06T03:45:33;99143.32;;;19.08;89.91
78615;BME280;67937;52.488;20.952;2023-08-06T03:48:02;99137.95;;;19.10;89.67
78615;BME280;67937;52.488;20.952;2023-08-06T03:50:30;99134.04;;;19.10;89.85
78615;BME280;67937;52.488;20.952;2023-08-06T03:52:57;99134.61;;;19.11;89.80
78615;BME280;67937;52.488;20.952;2023-08-06T03:55:25;99127.24;;;19.13;90.07
78615;BME280;67937;52.488;20.952;2023-08-06T03:57:53;99129.43;;;19.14;90.00
78615;BME280;67937;52.488;20.952;2023-08-06T04:00:21;99127.41;;;19.13;90.03
78615;BME280;67937;52.488;20.952;2023-08-06T04:02:49;99118.59;;;19.15;90.00
78615;BME280;67937;52.488;20.952;2023-08-06T04:05:18;99109.42;;;19.17;90.26
78615;BME280;67937;52.488;20.952;2023-08-06T04:07:46;99105.40;;;19.18;90.00
78615;BME280;67937;52.488;20.952;2023-08-06T04:10:14;99095.80;;;19.21;89.73
78615;BME280;67937;52.488;20.952;2023-08-06T04:12:42;99090.52;;;19.23;89.80
78615;BME280;67937;52.488;20.952;2023-08-06T04:15:10;99081.48;;;19.23;89.83
78615;BME280;67937;52.488;20.952;2023-08-06T04:17:38;99077.33;;;19.26;89.86
78615;BME280;67937;52.488;20.952;2023-08-06T04:20:06;99069.68;;;19.29;90.04
78615;BME280;67937;52.488;20.952;2023-08-06T04:22:34;99071.65;;;19.29;90.21
78615;BME280;67937;52.488;20.952;2023-08-06T04:25:02;99062.23;;;19.31;90.12
78615;BME280;67937;52.488;20.952;2023-08-06T04:27:31;99057.66;;;19.33;90.13
78615;BME280;67937;52.488;20.952;2023-08-06T04:29:59;99050.71;;;19.34;90.19
78615;BME280;67937;52.488;20.952;2023-08-06T04:32:27;99042.05;;;19.37;89.94
78615;BME280;67937;52.488;20.952;2023-08-06T04:34:55;99033.38;;;19.39;89.85
78615;BME280;67937;52.488;20.952;2023-08-06T04:37:23;99030.70;;;19.42;90.15
78615;BME280;67937;52.488;20.952;2023-08-06T04:39:51;99027.52;;;19.43;90.15
78615;BME280;67937;52.488;20.952;2023-08-06T04:42:19;99025.83;;;19.46;89.92
78615;BME280;67937;52.488;20.952;2023-08-06T04:44:47;99023.92;;;19.47;89.80
78615;BME280;67937;52.488;20.952;2023-08-06T04:47:16;99024.37;;;19.51;89.97
78615;BME280;67937;52.488;20.952;2023-08-06T04:49:46;99023.73;;;19.54;89.95
78615;BME280;67937;52.488;20.952;2023-08-06T04:52:14;99024.72;;;19.57;89.98
78615;BME280;67937;52.488;20.952;2023-08-06T04:54:43;99021.76;;;19.61;89.76
78615;BME280;67937;52.488;20.952;2023-08-06T04:57:14;99016.83;;;19.64;89.83
78615;BME280;67937;52.488;20.952;2023-08-06T04:59:42;99015.70;;;19.69;89.83
78615;BME280;67937;52.488;20.952;2023-08-06T05:02:10;99009.58;;;19.72;89.77
78615;BME280;67937;52.488;20.952;2023-08-06T05:04:38;99010.72;;;19.77;89.61
78615;BME280;67937;52.488;20.952;2023-08-06T05:07:07;99000.63;;;19.81;89.60
78615;BME280;67937;52.488;20.952;2023-08-06T05:09:35;99001.02;;;19.86;89.59
78615;BME280;67937;52.488;20.952;2023-08-06T05:12:04;98996.33;;;19.91;89.37
78615;BME280;67937;52.488;20.952;2023-08-06T05:14:32;98991.39;;;19.97;89.42
78615;BME280;67937;52.488;20.952;2023-08-06T05:17:04;98987.35;;;20.05;89.22
78615;BME280;67937;52.488;20.952;2023-08-06T05:19:32;98984.14;;;20.13;89.23
78615;BME280;67937;52.488;20.952;2023-08-06T05:22:00;98978.25;;;20.23;89.00
78615;BME280;67937;52.488;20.952;2023-08-06T05:24:29;98976.20;;;20.33;89.11
78615;BME280;67937;52.488;20.952;2023-08-06T05:26:57;98977.15;;;20.41;88.70
78615;BME280;67937;52.488;20.952;2023-08-06T05:29:25;98970.19;;;20.51;88.38
78615;BME280;67937;52.488;20.952;2023-08-06T05:31:53;98965.38;;;20.58;88.23
78615;BME280;67937;52.488;20.952;2023-08-06T05:34:21;98963.11;;;20.68;88.10
78615;BME280;67937;52.488;20.952;2023-08-06T05:36:50;98962.54;;;20.78;87.91
78615;BME280;67937;52.488;20.952;2023-08-06T05:39:19;98963.35;;;20.86;87.88
78615;BME280;67937;52.488;20.952;2023-08-06T05:41:47;98954.48;;;20.95;87.61
78615;BME280;67937;52.488;20.952;2023-08-06T05:44:15;98950.88;;;21.05;87.61
78615;BME280;67937;52.488;20.952;2023-08-06T05:46:43;98948.08;;;21.16;87.31
78615;BME280;67937;52.488;20.952;2023-08-06T05:49:11;98949.91;;;21.24;86.93
78615;BME280;67937;52.488;20.952;2023-08-06T05:51:40;98945.17;;;21.38;86.74
78615;BME280;67937;52.488;20.952;2023-08-06T05:54:08;98936.16;;;21.51;85.98
78615;BME280;67937;52.488;20.952;2023-08-06T05:56:37;98928.02;;;21.56;85.98
78615;BME280;67937;52.488;20.952;2023-08-06T05:59:05;98920.77;;;21.68;85.75
78615;BME280;67937;52.488;20.952;2023-08-06T06:01:33;98912.91;;;21.81;85.53
78615;BME280;67937;52.488;20.952;2023-08-06T06:04:01;98905.94;;;21.93;84.68
78615;BME280;67937;52.488;20.952;2023-08-06T06:06:29;98895.62;;;22.04;84.41
78615;BME280;67937;52.488;20.952;2023-08-06T06:08:58;98895.77;;;22.21;83.81
78615;BME280;67937;52.488;20.952;2023-08-06T06:11:26;98894.53;;;22.33;83.37
78615;BME280;67937;52.488;20.952;2023-08-06T06:13:54;98891.79;;;22.44;82.06
78615;BME280;67937;52.488;20.952;2023-08-06T06:16:22;98893.17;;;22.52;81.88
78615;BME280;67937;52.488;20.952;2023-08-06T06:18:50;98892.30;;;22.59;81.66
78615;BME280;67937;52.488;20.952;2023-08-06T06:21:18;98887.58;;;22.68;81.19
78615;BME280;67937;52.488;20.952;2023-08-06T06:23:46;98885.67;;;22.72;81.30
78615;BME280;67937;52.488;20.952;2023-08-06T06:26:14;98887.14;;;22.82;81.33
78615;BME280;67937;52.488;20.952;2023-08-06T06:28:42;98883.69;;;22.89;81.42
78615;BME280;67937;52.488;20.952;2023-08-06T06:31:10;98879.56;;;22.97;80.88
78615;BME280;67937;52.488;20.952;2023-08-06T06:33:38;98881.02;;;23.08;79.51
78615;BME280;67937;52.488;20.952;2023-08-06T06:36:06;98883.35;;;23.12;79.97
78615;BME280;67937;52.488;20.952;2023-08-06T06:38:36;98873.80;;;23.24;78.88
78615;BME280;67937;52.488;20.952;2023-08-06T06:41:04;98872.83;;;23.30;78.41
78615;BME280;67937;52.488;20.952;2023-08-06T06:43:32;98872.77;;;23.39;78.43
78615;BME280;67937;52.488;20.952;2023-08-06T06:46:01;98875.07;;;23.48;77.59
78615;BME280;67937;52.488;20.952;2023-08-06T06:48:32;98874.30;;;23.58;77.20
78615;BME280;67937;52.488;20.952;2023-08-06T06:51:00;98874.09;;;23.66;76.47
78615;BME280;67937;52.488;20.952;2023-08-06T06:53:29;98873.55;;;23.72;76.29
78615;BME280;67937;52.488;20.952;2023-08-06T06:56:04;98866.45;;;23.79;76.35
78615;BME280;67937;52.488;20.952;2023-08-06T06:58:33;98861.80;;;23.90;76.02
78615;BME280;67937;52.488;20.952;2023-08-06T07:01:01;98861.92;;;23.98;74.98
78615;BME280;67937;52.488;20.952;2023-08-06T07:03:29;98859.19;;;23.98;75.41
78615;BME280;67937;52.488;20.952;2023-08-06T07:05:58;98861.76;;;24.09;75.52
78615;BME280;67937;52.488;20.952;2023-08-06T07:08:26;98856.63;;;24.18;74.68
78615;BME280;67937;52.488;20.952;2023-08-06T07:11:05;98863.65;;;24.18;74.95
78615;BME280;67937;52.488;20.952;2023-08-06T07:13:34;98855.25;;;24.29;74.95
78615;BME280;67937;52.488;20.952;2023-08-06T07:16:03;98850.75;;;24.37;74.38
78615;BME280;67937;52.488;20.952;2023-08-06T07:18:31;98847.13;;;24.47;74.08
78615;BME280;67937;52.488;20.952;2023-08-06T07:21:03;98847.89;;;24.57;73.50
78615;BME280;67937;52.488;20.952;2023-08-06T07:23:31;98849.02;;;24.62;72.91
78615;BME280;67937;52.488;20.952;2023-08-06T07:25:59;98850.23;;;24.65;73.37
78615;BME280;67937;52.488;20.952;2023-08-06T07:28:27;98848.17;;;24.73;73.63
78615;BME280;67937;52.488;20.952;2023-08-06T07:30:55;98844.83;;;24.85;72.98
78615;BME280;67937;52.488;20.952;2023-08-06T07:33:27;98843.22;;;24.93;72.26
78615;BME280;67937;52.488;20.952;2023-08-06T07:35:56;98841.41;;;25.02;71.64
78615;BME280;67937;52.488;20.952;2023-08-06T07:38:25;98844.45;;;25.03;72.22
78615;BME280;67937;52.488;20.952;2023-08-06T07:40:54;98845.06;;;25.12;72.19
78615;BME280;67937;52.488;20.952;2023-08-06T07:43:22;98841.86;;;25.16;71.92
78615;BME280;67937;52.488;20.952;2023-08-06T07:46:03;98843.73;;;25.29;71.63
78615;BME280;67937;52.488;20.952;2023-08-06T07:48:31;98839.78;;;25.33;71.05
78615;BME280;67937;52.488;20.952;2023-08-06T07:51:01;98833.31;;;25.33;70.72
78615;BME280;67937;52.488;20.952;2023-08-06T07:53:29;98836.80;;;25.37;70.70
78615;BME280;67937;52.488;20.952;2023-08-06T07:55:59;98835.08;;;25.46;70.60
78615;BME280;67937;52.488;20.952;2023-08-06T07:58:29;98837.09;;;25.51;70.33
78615;BME280;67937;52.488;20.952;2023-08-06T08:00:58;98834.77;;;25.55;70.28
78615;BME280;67937;52.488;20.952;2023-08-06T08:03:30;98833.15;;;25.55;69.89
78615;BME280;67937;52.488;20.952;2023-08-06T08:05:58;98836.68;;;25.61;69.65
78615;BME280;67937;52.488;20.952;2023-08-06T08:08:26;98830.76;;;25.64;69.03
78615;BME280;67937;52.488;20.952;2023-08-06T08:10:55;98828.23;;;25.62;69.02
78615;BME280;67937;52.488;20.952;2023-08-06T08:13:26;98826.67;;;25.63;69.38
78615;BME280;67937;52.488;20.952;2023-08-06T08:15:58;98829.52;;;25.61;69.02
78615;BME280;67937;52.488;20.952;2023-08-06T08:18:27;98823.70;;;25.60;69.13
78615;BME280;67937;52.488;20.952;2023-08-06T08:20:55;98825.43;;;25.58;69.28
78615;BME280;67937;52.488;20.952;2023-08-06T08:23:23;98820.73;;;25.74;68.99
78615;BME280;67937;52.488;20.952;2023-08-06T08:25:52;98818.04;;;25.91;68.58
78615;BME280;67937;52.488;20.952;2023-08-06T08:28:21;98820.02;;;26.08;68.04
78615;BME280;67937;52.488;20.952;2023-08-06T08:30:49;98813.55;;;26.22;68.11
78615;BME280;67937;52.488;20.952;2023-08-06T08:33:17;98807.86;;;26.43;67.22
78615;BME280;67937;52.488;20.952;2023-08-06T08:35:46;98808.16;;;26.53;67.08
78615;BME280;67937;52.488;20.952;2023-08-06T08:38:14;98809.05;;;26.68;66.83
78615;BME280;67937;52.488;20.952;2023-08-06T08:40:46;98808.14;;;26.69;67.23
78615;BME280;67937;52.488;20.952;2023-08-06T08:43:15;98808.21;;;26.78;66.18
78615;BME280;67937;52.488;20.952;2023-08-06T08:45:45;98801.99;;;26.82;66.16
78615;BME280;67937;52.488;20.952;2023-08-06T08:48:18;98796.52;;;26.78;66.34
78615;BME280;67937;52.488;20.952;2023-08-06T08:50:50;98787.78;;;26.85;66.57
78615;BME280;67937;52.488;20.952;2023-08-06T08:53:21;98785.70;;;27.02;66.28
78615;BME280;67937;52.488;20.952;2023-08-06T08:55:49;98787.02;;;27.15;65.81
78615;BME280;67937;52.488;20.952;2023-08-06T08:58:19;98783.30;;;27.23;65.30
78615;BME280;67937;52.488;20.952;2023-08-06T09:00:47;98783.79;;;27.23;64.37
78615;BME280;67937;52.488;20.952;2023-08-06T09:03:16;98778.25;;;27.23;64.37
78615;BME280;67937;52.488;20.952;2023-08-06T09:05:49;98774.23;;;27.18;64.92
78615;BME280;67937;52.488;20.952;2023-08-06T09:08:23;98770.56;;;27.17;64.29
78615;BME280;67937;52.488;20.952;2023-08-06T09:10:53;98774.10;;;27.07;64.62
78615;BME280;67937;52.488;20.952;2023-08-06T09:13:23;98773.74;;;27.09;64.32
78615;BME280;67937;52.488;20.952;2023-08-06T09:15:52;98767.70;;;27.07;64.62
78615;BME280;67937;52.488;20.952;2023-08-06T09:18:26;98763.58;;;27.09;64.32
78615;BME280;67937;52.488;20.952;2023-08-06T09:20:56;98761.02;;;27.11;64.64
78615;BME280;67937;52.488;20.952;2023-08-06T09:23:29;98756.65;;;27.15;64.62
78615;BME280;67937;52.488;20.952;2023-08-06T09:25:58;98756.20;;;27.24;64.67
78615;BME280;67937;52.488;20.952;2023-08-06T09:28:39;98746.42;;;27.30;64.04
78615;BME280;67937;52.488;20.952;2023-08-06T09:31:09;98743.89;;;27.35;64.39
78615;BME280;67937;52.488;20.952;2023-08-06T09:33:38;98737.42;;;27.37;64.25
78615;BME280;67937;52.488;20.952;2023-08-06T09:36:10;98736.09;;;27.45;64.36
78615;BME280;67937;52.488;20.952;2023-08-06T09:38:40;98734.75;;;27.59;64.09
78615;BME280;67937;52.488;20.952;2023-08-06T09:41:08;98737.14;;;27.76;63.86
78615;BME280;67937;52.488;20.952;2023-08-06T09:43:40;98733.27;;;27.92;63.21
78615;BME280;67937;52.488;20.952;2023-08-06T09:46:13;98730.11;;;27.99;62.90
78615;BME280;67937;52.488;20.952;2023-08-06T09:48:50;98726.09;;;27.96;63.26
78615;BME280;67937;52.488;20.952;2023-08-06T09:51:18;98725.30;;;27.89;62.74
78615;BME280;67937;52.488;20.952;2023-08-06T09:53:47;98727.09;;;27.84;62.86
78615;BME280;67937;52.488;20.952;2023-08-06T09:56:17;98723.84;;;27.85;62.87
78615;BME280;67937;52.488;20.952;2023-08-06T09:58:47;98720.36;;;27.91;62.63
78615;BME280;67937;52.488;20.952;2023-08-06T10:01:17;98716.90;;;28.00;62.24
78615;BME280;67937;52.488;20.952;2023-08-06T10:03:47;98711.02;;;27.98;62.28
78615;BME280;67937;52.488;20.952;2023-08-06T10:06:18;98711.73;;;27.98;62.32
78615;BME280;67937;52.488;20.952;2023-08-06T10:08:48;98710.92;;;28.03;62.47
78615;BME280;67937;52.488;20.952;2023-08-06T10:11:17;98707.21;;;28.09;61.95
78615;BME280;67937;52.488;20.952;2023-08-06T10:13:46;98705.58;;;28.17;61.47
78615;BME280;67937;52.488;20.952;2023-08-06T10:16:15;98704.64;;;28.29;60.64
78615;BME280;67937;52.488;20.952;2023-08-06T10:18:46;98702.23;;;28.33;60.66
78615;BME280;67937;52.488;20.952;2023-08-06T10:21:27;98700.54;;;28.41;60.56
78615;BME280;67937;52.488;20.952;2023-08-06T10:23:57;98700.64;;;28.43;59.96
78615;BME280;67937;52.488;20.952;2023-08-06T10:26:29;98693.80;;;28.48;60.00
78615;BME280;67937;52.488;20.952;2023-08-06T10:28:58;98689.16;;;28.50;60.30
78615;BME280;67937;52.488;20.952;2023-08-06T10:32:16;98682.95;;;28.57;59.53
78615;BME280;67937;52.488;20.952;2023-08-06T10:35:41;98671.05;;;28.66;59.38
78615;BME280;67937;52.488;20.952;2023-08-06T10:38:57;98674.90;;;28.75;58.51
78615;BME280;67937;52.488;20.952;2023-08-06T10:45:20;98664.71;;;28.59;58.92
78615;BME280;67937;52.488;20.952;2023-08-06T10:47:57;98664.02;;;28.45;59.34
78615;BME280;67937;52.488;20.952;2023-08-06T10:51:32;98664.15;;;28.31;59.31
78615;BME280;67937;52.488;20.952;2023-08-06T10:54:48;98666.97;;;28.38;59.22
78615;BME280;67937;52.488;20.952;2023-08-06T10:57:59;98667.42;;;28.59;58.83
78615;BME280;67937;52.488;20.952;2023-08-06T11:00:44;98658.70;;;28.82;57.76
78615;BME280;67937;52.488;20.952;2023-08-06T11:03:38;98657.15;;;28.98;57.81
78615;BME280;67937;52.488;20.952;2023-08-06T11:06:35;98651.67;;;29.08;57.11
78615;BME280;67937;52.488;20.952;2023-08-06T11:09:21;98637.20;;;29.16;57.34
78615;BME280;67937;52.488;20.952;2023-08-06T11:11:50;98640.02;;;29.28;56.62
78615;BME280;67937;52.488;20.952;2023-08-06T11:14:19;98639.30;;;29.18;56.90
78615;BME280;67937;52.488;20.952;2023-08-06T11:16:48;98631.71;;;29.12;56.65
78615;BME280;67937;52.488;20.952;2023-08-06T11:19:17;98627.73;;;29.22;56.59
78615;BME280;67937;52.488;20.952;2023-08-06T11:21:46;98622.64;;;29.35;56.12
78615;BME280;67937;52.488;20.952;2023-08-06T11:24:14;98616.02;;;29.47;56.16
78615;BME280;67937;52.488;20.952;2023-08-06T11:26:43;98615.11;;;29.56;55.47
78615;BME280;67937;52.488;20.952;2023-08-06T11:29:11;98606.67;;;29.54;55.70
78615;BME280;67937;52.488;20.952;2023-08-06T11:31:39;98608.13;;;29.36;56.21
78615;BME280;67937;52.488;20.952;2023-08-06T11:34:07;98601.68;;;29.12;56.04
78615;BME280;67937;52.488;20.952;2023-08-06T11:36:40;98600.98;;;29.09;56.09
78615;BME280;67937;52.488;20.952;2023-08-06T11:39:10;98600.75;;;29.22;56.17
78615;BME280;67937;52.488;20.952;2023-08-06T11:41:39;98593.11;;;29.40;55.76
78615;BME280;67937;52.488;20.952;2023-08-06T11:44:11;98587.76;;;29.54;55.57
78615;BME280;67937;52.488;20.952;2023-08-06T11:46:55;98590.89;;;29.46;54.94
78615;BME280;67937;52.488;20.952;2023-08-06T11:49:48;98586.56;;;29.26;55.15
78615;BME280;67937;52.488;20.952;2023-08-06T11:52:40;98580.17;;;29.10;55.20
78615;BME280;67937;52.488;20.952;2023-08-06T11:55:28;98573.23;;;29.01;55.19
78615;BME280;67937;52.488;20.952;2023-08-06T11:57:57;98568.58;;;28.88;55.34
78615;BME280;67937;52.488;20.952;2023-08-06T12:00:26;98564.66;;;28.95;55.75
78615;BME280;67937;52.488;20.952;2023-08-06T12:02:54;98559.64;;;29.18;55.31
78615;BME280;67937;52.488;20.952;2023-08-06T12:05:29;98556.60;;;29.24;55.00
78615;BME280;67937;52.488;20.952;2023-08-06T12:07:59;98551.08;;;29.11;54.75
78615;BME280;67937;52.488;20.952;2023-08-06T12:10:31;98551.17;;;29.02;53.99
78615;BME280;67937;52.488;20.952;2023-08-06T12:13:00;98549.19;;;28.97;54.22
78615;BME280;67937;52.488;20.952;2023-08-06T12:15:29;98543.08;;;29.06;53.48
78615;BME280;67937;52.488;20.952;2023-08-06T12:17:57;98544.20;;;29.21;53.68
78615;BME280;67937;52.488;20.952;2023-08-06T12:20:25;98548.95;;;29.33;53.61
78615;BME280;67937;52.488;20.952;2023-08-06T12:22:55;98540.50;;;29.47;52.90
78615;BME280;67937;52.488;20.952;2023-08-06T12:25:23;98544.14;;;29.50;52.65
78615;BME280;67937;52.488;20.952;2023-08-06T12:27:51;98547.48;;;29.45;52.37
78615;BME280;67937;52.488;20.952;2023-08-06T12:30:19;98555.02;;;29.31;52.44
78615;BME280;67937;52.488;20.952;2023-08-06T12:32:47;98550.52;;;29.14;52.40
78615;BME280;67937;52.488;20.952;2023-08-06T12:35:18;98550.00;;;28.98;53.02
78615;BME280;67937;52.488;20.952;2023-08-06T12:37:46;98551.80;;;28.81;53.03
78615;BME280;67937;52.488;20.952;2023-08-06T12:40:14;98548.65;;;28.68;53.63
78615;BME280;67937;52.488;20.952;2023-08-06T12:42:42;98550.67;;;28.55;53.57
78615;BME280;67937;52.488;20.952;2023-08-06T12:45:11;98545.52;;;28.45;53.88
78615;BME280;67937;52.488;20.952;2023-08-06T12:47:39;98545.11;;;28.38;54.05
78615;BME280;67937;52.488;20.952;2023-08-06T12:50:08;98548.98;;;28.33;54.08
78615;BME280;67937;52.488;20.952;2023-08-06T12:52:36;98549.21;;;28.32;53.90
78615;BME280;67937;52.488;20.952;2023-08-06T12:55:04;98543.58;;;28.25;54.45
78615;BME280;67937;52.488;20.952;2023-08-06T12:58:10;98530.61;;;28.17;54.64
78615;BME280;67937;52.488;20.952;2023-08-06T13:00:52;98523.21;;;28.16;54.48
78615;BME280;67937;52.488;20.952;2023-08-06T13:03:22;98526.70;;;28.13;54.76
78615;BME280;67937;52.488;20.952;2023-08-06T13:06:19;98523.45;;;28.08;55.12
78615;BME280;67937;52.488;20.952;2023-08-06T13:09:00;98507.69;;;28.05;55.44
78615;BME280;67937;52.488;20.952;2023-08-06T13:11:47;98501.98;;;28.02;55.40
78615;BME280;67937;52.488;20.952;2023-08-06T13:14:18;98509.23;;;27.96;55.72
78615;BME280;67937;52.488;20.952;2023-08-06T13:16:47;98508.80;;;27.94;55.86
78615;BME280;67937;52.488;20.952;2023-08-06T13:19:16;98513.81;;;27.91;56.00
78615;BME280;67937;52.488;20.952;2023-08-06T13:24:19;98524.52;;;27.85;56.13
78615;BME280;67937;52.488;20.952;2023-08-06T13:26:48;98521.85;;;27.81;56.34